Time;durP1;ratioP1;P1;durP2;ratioP2;P2;SDS_P1;SDS_P2;PMS_P1;PMS_P2;Temp;Humidity;BMP_temperature;BMP_pressure;BME280_temperature;BME280_humidity;BME280_pressure;Samples;Min_cycle;Max_cycle;Signal;HPM_P1;HPM_P2
2022/01/31 00:00:18;;;;;;;3.33;2.38;;;;;;;1.71;100.00;96316.81;5173839;27;20062;-53
2022/01/31 00:02:46;;;;;;;2.45;2.20;;;;;;;1.68;100.00;96312.16;5172666;27;20061;-55
2022/01/31 00:05:13;;;;;;;3.55;2.80;;;;;;;1.69;100.00;96324.50;5173362;27;20158;-55
2022/01/31 00:07:39;;;;;;;5.68;2.63;;;;;;;1.70;100.00;96332.25;5173387;27;20050;-55
2022/01/31 00:10:10;;;;;;;6.15;3.22;;;;;;;1.68;100.00;96329.13;5173165;27;20050;-53
2022/01/31 00:12:47;;;;;;;3.42;2.70;;;;;;;1.67;100.00;96338.41;5173296;27;20046;-53
2022/01/31 00:15:14;;;;;;;4.05;2.92;;;;;;;1.58;100.00;96337.94;5173320;27;20056;-54
2022/01/31 00:17:40;;;;;;;3.70;2.90;;;;;;;1.60;100.00;96338.31;5173207;27;20133;-53
2022/01/31 00:20:08;;;;;;;4.53;3.15;;;;;;;1.64;100.00;96344.56;5173214;27;20053;-55
2022/01/31 00:22:34;;;;;;;3.28;2.97;;;;;;;1.56;100.00;96346.41;5173292;27;20552;-54
2022/01/31 00:25:00;;;;;;;5.18;3.55;;;;;;;1.44;100.00;96352.09;5172712;27;20060;-55
2022/01/31 00:27:27;;;;;;;4.05;3.30;;;;;;;1.48;100.00;96354.84;5172569;27;20048;-53
2022/01/31 00:29:53;;;;;;;3.58;3.20;;;;;;;1.56;100.00;96349.09;5172851;27;20133;-54
2022/01/31 00:32:20;;;;;;;4.32;2.97;;;;;;;1.58;100.00;96351.44;5172486;27;20127;-51
2022/01/31 00:34:46;;;;;;;5.25;3.40;;;;;;;1.60;100.00;96343.72;5172700;27;20061;-55
2022/01/31 00:37:13;;;;;;;4.95;3.42;;;;;;;1.60;100.00;96339.13;5172949;27;20132;-54
2022/01/31 00:39:39;;;;;;;4.43;3.45;;;;;;;1.54;100.00;96354.13;5172942;27;20046;-52
2022/01/31 00:42:07;;;;;;;5.50;3.45;;;;;;;1.58;100.00;96349.50;5173115;27;20089;-55
2022/01/31 00:44:46;;;;;;;4.60;3.50;;;;;;;1.57;100.00;96352.59;5173079;27;20046;-54
2022/01/31 00:47:19;;;;;;;4.65;3.63;;;;;;;1.57;100.00;96347.97;5172614;27;20053;-55
2022/01/31 00:49:50;;;;;;;3.58;3.00;;;;;;;1.56;100.00;96348.31;5173027;27;20132;-55
2022/01/31 00:52:17;;;;;;;5.63;3.30;;;;;;;1.60;100.00;96343.72;5172538;27;20050;-52
2022/01/31 00:54:43;;;;;;;8.15;3.95;;;;;;;1.58;100.00;96352.22;5172638;27;20069;-55
2022/01/31 00:57:09;;;;;;;4.15;3.45;;;;;;;1.56;100.00;96351.78;5172708;27;20062;-55
2022/01/31 00:59:36;;;;;;;5.30;3.92;;;;;;;1.58;100.00;96351.44;5172686;27;20043;-54
2022/01/31 01:02:03;;;;;;;4.13;3.33;;;;;;;1.57;100.00;96339.88;5172817;27;20178;-55
2022/01/31 01:04:29;;;;;;;4.25;3.40;;;;;;;1.56;100.00;96343.69;5172622;27;20725;-53
2022/01/31 01:06:56;;;;;;;4.72;3.80;;;;;;;1.55;100.00;96344.09;5172581;27;20050;-54
2022/01/31 01:09:22;;;;;;;4.90;3.88;;;;;;;1.56;100.00;96340.22;5172604;27;20060;-52
2022/01/31 01:11:49;;;;;;;5.18;3.92;;;;;;;1.58;100.00;96336.00;5172845;27;20481;-54
2022/01/31 01:14:15;;;;;;;4.82;3.88;;;;;;;1.61;100.00;96331.78;5172523;27;20128;-53
2022/01/31 01:16:42;;;;;;;4.80;3.90;;;;;;;1.57;100.00;96344.50;5172241;27;20057;-54
2022/01/31 01:19:08;;;;;;;5.15;4.03;;;;;;;1.49;100.00;96349.06;5172129;27;20061;-52
2022/01/31 01:21:35;;;;;;;5.60;4.00;;;;;;;1.42;100.00;96347.06;5172389;27;20078;-54
2022/01/31 01:24:01;;;;;;;5.53;3.83;;;;;;;1.44;100.00;96332.44;5172170;27;20053;-54
2022/01/31 01:26:27;;;;;;;5.90;4.50;;;;;;;1.38;100.00;96327.38;5171562;27;20049;-55
2022/01/31 01:28:53;;;;;;;6.05;4.28;;;;;;;1.30;100.00;96333.88;5172363;27;20042;-54
2022/01/31 01:31:19;;;;;;;5.28;4.05;;;;;;;1.35;100.00;96319.25;5171932;27;20050;-55
2022/01/31 01:33:46;;;;;;;5.05;4.05;;;;;;;1.35;100.00;96322.72;5172071;27;20539;-53
2022/01/31 01:36:13;;;;;;;5.80;3.88;;;;;;;1.41;100.00;96317.75;5171927;27;20076;-53
2022/01/31 01:38:40;;;;;;;5.60;4.50;;;;;;;1.42;100.00;96311.97;5171854;27;20459;-54
2022/01/31 01:41:06;;;;;;;5.10;4.00;;;;;;;1.40;100.00;96317.00;5171826;27;20054;-52
2022/01/31 01:43:32;;;;;;;7.22;4.40;;;;;;;1.41;100.00;96317.75;5172382;27;20052;-53
2022/01/31 01:46:00;;;;;;;6.03;4.05;;;;;;;1.36;100.00;96318.88;5171861;27;20054;-51
2022/01/31 01:48:26;;;;;;;4.25;3.83;;;;;;;1.35;100.00;96319.25;5171773;27;20049;-52
2022/01/31 01:50:55;;;;;;;6.50;4.50;;;;;;;1.34;100.00;96323.09;5171911;27;20057;-51
2022/01/31 01:53:21;;;;;;;6.53;4.28;;;;;;;1.27;100.00;96318.44;5171791;27;20054;-53
2022/01/31 01:55:50;;;;;;;7.05;4.43;;;;;;;1.21;100.00;96322.59;5171833;27;20046;-55
2022/01/31 01:58:17;;;;;;;7.45;4.47;;;;;;;1.18;100.00;96321.44;5171948;27;20470;-54
2022/01/31 02:00:50;;;;;;;6.10;4.47;;;;;;;1.28;100.00;96317.25;5171780;27;20049;-51
2022/01/31 02:03:17;;;;;;;6.15;4.28;;;;;;;1.30;100.00;96323.09;5172158;27;20565;-55
2022/01/31 02:05:45;;;;;;;6.78;4.80;;;;;;;1.31;100.00;96321.91;5172293;27;20102;-55
2022/01/31 02:08:13;;;;;;;7.85;5.43;;;;;;;1.32;100.00;96326.16;5171828;27;20375;-55
2022/01/31 02:10:39;;;;;;;6.40;4.88;;;;;;;1.34;100.00;96329.28;5171986;27;20050;-55
2022/01/31 02:13:08;;;;;;;8.48;5.28;;;;;;;1.27;100.00;96341.94;5171527;27;20508;-55
2022/01/31 02:15:34;;;;;;;8.32;5.50;;;;;;;1.27;100.00;96342.72;5171725;27;20466;-52
2022/01/31 02:18:01;;;;;;;7.10;5.05;;;;;;;1.32;100.00;96350.47;5171414;27;20141;-55
2022/01/31 02:20:27;;;;;;;8.55;4.90;;;;;;;1.35;100.00;96355.09;5171620;27;20417;-54
2022/01/31 02:22:55;;;;;;;7.13;4.97;;;;;;;1.26;100.00;96367.34;5171620;27;20516;-55
2022/01/31 02:25:21;;;;;;;8.13;5.43;;;;;;;1.33;100.00;96378.22;5171460;27;20500;-52
2022/01/31 02:27:47;;;;;;;9.25;5.50;;;;;;;1.35;100.00;96374.00;5174772;27;20057;-54
2022/01/31 02:30:15;;;;;;;7.45;4.80;;;;;;;1.35;100.00;96371.31;5175196;27;20054;-55
2022/01/31 02:32:43;;;;;;;3.70;2.78;;;;;;;1.14;100.00;96388.09;5175021;27;20054;-54
2022/01/31 02:35:11;;;;;;;1.73;1.52;;;;;;;1.12;100.00;96406.56;5174847;27;20424;-52
2022/01/31 02:37:38;;;;;;;1.20;1.20;;;;;;;1.00;100.00;96420.31;5175089;27;20070;-53
2022/01/31 02:40:07;;;;;;;1.48;1.10;;;;;;;0.90;100.00;96437.13;5174628;27;20046;-52
2022/01/31 02:42:33;;;;;;;1.10;1.00;;;;;;;0.80;100.00;96452.06;5174923;27;20054;-54
2022/01/31 02:44:59;;;;;;;1.08;0.98;;;;;;;0.76;100.00;96458.53;5174742;27;20050;-52
2022/01/31 02:47:29;;;;;;;3.45;1.00;;;;;;;0.68;100.00;96457.69;5174891;27;20589;-55
2022/01/31 02:49:58;;;;;;;0.77;0.77;;;;;;;0.68;100.00;96465.78;5174548;27;20048;-54
2022/01/31 02:52:27;;;;;;;1.10;1.00;;;;;;;0.61;100.00;96481.88;5174597;27;20549;-55
2022/01/31 02:54:53;;;;;;;0.80;0.80;;;;;;;0.68;100.00;96461.16;5174720;27;20077;-54
2022/01/31 02:57:20;;;;;;;1.17;1.00;;;;;;;0.70;100.00;96476.97;5174619;27;20050;-53
2022/01/31 02:59:46;;;;;;;1.05;1.05;;;;;;;0.72;100.00;96472.00;5174341;27;20052;-55
2022/01/31 03:02:14;;;;;;;1.20;1.10;;;;;;;0.65;100.00;96477.28;5174414;27;20102;-54
2022/01/31 03:04:40;;;;;;;1.23;1.20;;;;;;;0.65;100.00;96490.78;5174812;27;20095;-54
2022/01/31 03:07:06;;;;;;;0.88;0.88;;;;;;;0.52;100.00;96498.28;5174173;27;20501;-52
2022/01/31 03:09:33;;;;;;;1.63;1.52;;;;;;;0.45;100.00;96500.91;5174328;27;20484;-54
2022/01/31 03:12:00;;;;;;;1.52;1.42;;;;;;;0.45;100.00;96498.97;5174408;27;20094;-53
2022/01/31 03:14:27;;;;;;;2.10;1.70;;;;;;;0.51;100.00;96499.44;5174294;27;20098;-53
2022/01/31 03:16:53;;;;;;;1.80;1.70;;;;;;;0.50;100.00;96497.09;5174207;27;20096;-54
2022/01/31 03:19:20;;;;;;;2.90;1.83;;;;;;;0.55;100.00;96494.88;5174530;27;20073;-54
2022/01/31 03:21:47;;;;;;;2.30;2.10;;;;;;;0.56;100.00;96480.25;5174225;27;20176;-54
2022/01/31 03:24:14;;;;;;;1.73;1.63;;;;;;;0.63;100.00;96484.97;5174033;27;20088;-54
2022/01/31 03:26:40;;;;;;;2.20;1.90;;;;;;;0.63;100.00;96498.44;5173586;27;20046;-51
2022/01/31 03:29:07;;;;;;;2.33;2.00;;;;;;;0.64;100.00;96500.00;5174068;27;20101;-54
2022/01/31 03:31:34;;;;;;;2.58;2.20;;;;;;;0.53;100.00;96504.47;5174332;27;20048;-51
2022/01/31 03:34:01;;;;;;;1.92;1.83;;;;;;;0.44;100.00;96510.91;5173725;27;20042;-53
2022/01/31 03:36:27;;;;;;;2.95;2.20;;;;;;;0.43;100.00;96512.06;5174069;27;20050;-53
2022/01/31 03:38:53;;;;;;;2.17;1.67;;;;;;;0.34;100.00;96522.31;5172744;27;20046;-52
2022/01/31 03:41:22;;;;;;;2.20;1.80;;;;;;;0.36;100.00;96516.53;5173939;27;20083;-51
2022/01/31 03:43:48;;;;;;;2.20;2.00;;;;;;;0.34;100.00;96516.13;5173933;27;20409;-54
2022/01/31 03:46:15;;;;;;;1.92;1.83;;;;;;;0.34;100.00;96530.38;5173701;27;20133;-52
2022/01/31 03:48:43;;;;;;;2.10;1.90;;;;;;;0.41;100.00;96532.41;5173940;27;20042;-54
2022/01/31 03:51:09;;;;;;;1.65;1.38;;;;;;;0.26;100.00;96547.56;5173610;27;20046;-54
2022/01/31 03:53:36;;;;;;;1.52;1.42;;;;;;;0.16;100.00;96561.66;5173671;27;20048;-54
2022/01/31 03:56:02;;;;;;;1.98;1.75;;;;;;;0.27;100.00;96562.63;5173548;27;20137;-53
2022/01/31 03:58:28;;;;;;;1.90;1.80;;;;;;;0.31;100.00;96570.75;5173923;27;20050;-53
2022/01/31 04:00:55;;;;;;;1.50;1.40;;;;;;;0.20;100.00;96576.75;5173472;27;20117;-52
2022/01/31 04:03:21;;;;;;;1.50;1.40;;;;;;;0.19;100.00;96575.19;5173769;27;20072;-52
2022/01/31 04:05:48;;;;;;;2.67;1.60;;;;;;;0.26;100.00;96587.22;5173743;27;20456;-52
2022/01/31 04:08:15;;;;;;;1.95;1.70;;;;;;;0.32;100.00;96585.78;5173695;27;20054;-54
2022/01/31 04:10:41;;;;;;;1.85;1.60;;;;;;;0.25;100.00;96599.13;5173545;27;20082;-55
2022/01/31 04:13:07;;;;;;;1.88;1.70;;;;;;;0.22;100.00;96612.19;5173452;27;20741;-52
2022/01/31 04:15:34;;;;;;;2.17;1.42;;;;;;;0.18;100.00;96634.81;5173588;27;20050;-53
2022/01/31 04:18:01;;;;;;;3.17;2.10;;;;;;;0.14;100.00;96636.69;5173321;27;20081;-54
2022/01/31 04:20:27;;;;;;;2.00;1.67;;;;;;;0.20;100.00;96637.91;5172944;27;20046;-54
2022/01/31 04:22:58;;;;;;;1.92;1.35;;;;;;;0.18;100.00;96643.69;5173197;27;20425;-51
2022/01/31 04:25:29;;;;;;;1.60;1.40;;;;;;;0.24;100.00;96657.66;5173181;27;20081;-54
2022/01/31 04:28:02;;;;;;;2.08;1.50;;;;;;;0.26;100.00;96647.28;5172541;27;20077;-54
2022/01/31 04:30:29;;;;;;;1.75;1.65;;;;;;;0.33;100.00;96662.78;5173130;27;20549;-55
2022/01/31 04:32:56;;;;;;;3.40;1.77;;;;;;;0.30;100.00;96669.69;5172976;27;20064;-54
2022/01/31 04:35:22;;;;;;;1.70;1.60;;;;;;;0.19;100.00;96680.25;5172883;27;20182;-51
2022/01/31 04:37:48;;;;;;;1.80;1.45;;;;;;;0.14;100.00;96685.19;5173093;27;20046;-51
2022/01/31 04:40:15;;;;;;;4.30;1.70;;;;;;;0.14;100.00;96699.44;5172763;27;20042;-52
2022/01/31 04:42:43;;;;;;;1.60;1.50;;;;;;;0.20;100.00;96703.38;5172533;27;20141;-53
2022/01/31 04:45:10;;;;;;;1.75;1.65;;;;;;;0.21;100.00;96723.81;5172710;27;20110;-53
2022/01/31 04:47:37;;;;;;;1.58;1.48;;;;;;;0.22;100.00;96725.34;5172685;27;20141;-54
2022/01/31 04:50:04;;;;;;;1.80;1.70;;;;;;;0.19;100.00;96731.44;5172046;27;20049;-51
2022/01/31 04:52:31;;;;;;;2.60;1.80;;;;;;;0.21;100.00;96737.28;5172270;27;20042;-54
2022/01/31 04:54:57;;;;;;;1.50;1.40;;;;;;;0.21;100.00;96739.97;5172913;27;20057;-51
2022/01/31 04:57:24;;;;;;;2.70;2.00;;;;;;;0.17;100.00;96757.22;5172768;27;20153;-52
2022/01/31 04:59:51;;;;;;;1.98;1.77;;;;;;;0.11;100.00;96761.31;5172358;27;20061;-54
2022/01/31 05:02:18;;;;;;;2.28;2.03;;;;;;;0.12;100.00;96760.19;5172469;27;20130;-50
2022/01/31 05:04:44;;;;;;;1.70;1.60;;;;;;;0.10;100.00;96773.22;5172315;27;20049;-52
2022/01/31 05:07:10;;;;;;;2.30;1.88;;;;;;;0.15;100.00;96775.63;5172488;27;20054;-52
2022/01/31 05:09:37;;;;;;;2.13;1.80;;;;;;;0.20;100.00;96778.03;5172192;27;20081;-54
2022/01/31 05:12:04;;;;;;;4.50;1.83;;;;;;;0.23;100.00;96788.91;5172171;27;20428;-54
2022/01/31 05:14:31;;;;;;;2.65;1.80;;;;;;;0.16;100.00;96804.13;5172236;27;20046;-51
2022/01/31 05:16:57;;;;;;;3.20;1.70;;;;;;;0.04;100.00;96806.97;5171733;27;20046;-55
2022/01/31 05:19:24;;;;;;;2.67;1.92;;;;;;;0.45;100.00;96808.19;5172318;27;20042;-53
2022/01/31 05:21:50;;;;;;;13.07;2.13;;;;;;;1.50;100.00;96779.91;5172569;27;20054;-51
2022/01/31 05:24:17;;;;;;;2.67;1.92;;;;;;;2.07;100.00;96805.03;5172210;27;20053;-52
2022/01/31 05:26:43;;;;;;;5.10;1.85;;;;;;;1.95;100.00;96866.59;5171942;27;20054;-50
2022/01/31 05:29:09;;;;;;;2.20;1.60;;;;;;;2.02;100.00;96894.50;5172090;27;20042;-50
2022/01/31 05:31:36;;;;;;;3.58;1.85;;;;;;;1.67;100.00;96904.75;5172015;27;20053;-50
2022/01/31 05:34:02;;;;;;;1.92;1.70;;;;;;;1.25;100.00;96900.22;5172105;27;20050;-52
2022/01/31 05:36:29;;;;;;;2.47;1.98;;;;;;;1.12;100.00;96892.28;5171849;27;20098;-53
2022/01/31 05:38:55;;;;;;;2.42;1.90;;;;;;;1.00;100.00;96902.44;5172279;27;20106;-52
2022/01/31 05:41:21;;;;;;;2.72;2.08;;;;;;;0.78;100.00;96910.13;5172132;27;20053;-52
2022/01/31 05:43:48;;;;;;;38.17;13.75;;;;;;;0.70;100.00;96908.44;5172258;27;20204;-51
2022/01/31 05:46:15;;;;;;;1.98;1.80;;;;;;;0.67;100.00;96918.00;5172222;27;20050;-51
2022/01/31 05:48:42;;;;;;;2.90;2.22;;;;;;;0.64;100.00;96926.03;5171918;27;20725;-52
2022/01/31 05:51:15;;;;;;;3.60;2.00;;;;;;;0.67;100.00;96926.09;5171878;27;20097;-53
2022/01/31 05:53:41;;;;;;;2.33;1.90;;;;;;;0.58;100.00;96924.75;5171995;27;20042;-50
2022/01/31 05:56:08;;;;;;;2.65;2.05;;;;;;;0.60;100.00;96925.16;5171432;27;20377;-53
2022/01/31 05:58:35;;;;;;;1.63;1.52;;;;;;;0.63;100.00;96921.75;5171985;27;20050;-54
2022/01/31 06:01:01;;;;;;;1.92;1.70;;;;;;;0.62;100.00;96933.69;5172378;27;20077;-53
2022/01/31 06:03:27;;;;;;;2.47;1.90;;;;;;;0.67;100.00;96936.91;5175269;27;20042;-51
2022/01/31 06:05:54;;;;;;;1.65;1.35;;;;;;;0.62;100.00;96929.06;5175268;27;20069;-53
2022/01/31 06:08:21;;;;;;;2.60;1.83;;;;;;;0.67;100.00;96928.03;5175249;27;20056;-52
2022/01/31 06:10:48;;;;;;;3.35;2.10;;;;;;;0.74;100.00;96930.09;5174544;27;20496;-54
2022/01/31 06:13:16;;;;;;;2.20;1.67;;;;;;;0.64;100.00;96921.41;5174949;27;20046;-49
2022/01/31 06:15:42;;;;;;;1.60;1.27;;;;;;;0.59;100.00;96916.28;5174977;27;20046;-52
2022/01/31 06:18:08;;;;;;;4.68;2.78;;;;;;;0.51;100.00;96927.31;5174918;27;20089;-50
2022/01/31 06:20:35;;;;;;;1.40;1.30;;;;;;;0.48;100.00;96928.78;5175006;27;20137;-54
2022/01/31 06:23:02;;;;;;;1.70;1.58;;;;;;;0.37;100.00;96933.19;5174925;27;20076;-56
2022/01/31 06:25:29;;;;;;;1.95;1.63;;;;;;;0.36;100.00;96953.16;5175173;27;20068;-56
2022/01/31 06:27:55;;;;;;;4.25;2.63;;;;;;;0.28;100.00;96949.53;5174536;27;20046;-51
2022/01/31 06:30:21;;;;;;;2.33;1.83;;;;;;;0.38;100.00;96950.91;5165550;27;20143;-53
2022/01/31 06:32:48;;;;;;;3.42;2.50;;;;;;;0.39;100.00;96957.84;5173553;27;20061;-50
2022/01/31 06:35:14;;;;;;;5.45;3.17;;;;;;;0.42;100.00;96959.84;5165776;27;20156;-50
2022/01/31 06:37:40;;;;;;;1.80;1.50;;;;;;;0.38;100.00;96959.75;5169071;27;20163;-54
2022/01/31 06:40:08;;;;;;;1.65;1.42;;;;;;;0.35;100.00;96962.38;5174712;27;20094;-51
2022/01/31 06:42:34;;;;;;;1.45;1.35;;;;;;;0.38;100.00;96975.94;5174776;27;20088;-52
2022/01/31 06:45:01;;;;;;;1.30;1.20;;;;;;;0.38;100.00;96977.84;5161372;27;20135;-54
2022/01/31 06:47:27;;;;;;;1.63;1.52;;;;;;;0.36;100.00;96980.09;5170537;27;20428;-53
2022/01/31 06:49:53;;;;;;;2.72;1.70;;;;;;;0.36;100.00;96988.19;5174007;27;20149;-51
2022/01/31 06:52:19;;;;;;;1.90;1.80;;;;;;;0.34;100.00;96985.88;5172175;27;20137;-50
2022/01/31 06:54:50;;;;;;;2.08;1.70;;;;;;;0.35;100.00;96989.34;5174026;27;20054;-51
2022/01/31 06:57:17;;;;;;;1.60;1.50;;;;;;;0.29;100.00;96996.13;5159011;27;20043;-54
2022/01/31 06:59:43;;;;;;;1.83;1.52;;;;;;;0.25;100.00;96995.25;5153350;27;20051;-52
2022/01/31 07:02:09;;;;;;;3.38;1.63;;;;;;;0.08;100.00;96988.31;5152714;27;20539;-55
2022/01/31 07:04:36;;;;;;;1.75;1.45;;;;;;;0.06;100.00;96987.88;5153397;27;20579;-52
2022/01/31 07:07:03;;;;;;;1.70;1.60;;;;;;;0.05;100.00;96989.81;5165922;27;20054;-51
2022/01/31 07:09:29;;;;;;;2.55;1.50;;;;;;;0.11;100.00;96990.31;5174050;27;20133;-53
2022/01/31 07:11:59;;;;;;;2.38;2.10;;;;;;;0.14;100.00;96987.72;5174207;27;20082;-50
2022/01/31 07:14:31;;;;;;;2.67;2.03;;;;;;;0.25;100.00;96982.56;5174045;27;20402;-47
2022/01/31 07:17:00;;;;;;;1.55;1.45;;;;;;;0.31;100.00;96985.78;5162028;27;20051;-52
2022/01/31 07:19:31;;;;;;;2.95;1.95;;;;;;;0.25;100.00;96989.88;5153089;27;20047;-51
2022/01/31 07:21:57;;;;;;;1.40;1.30;;;;;;;0.18;100.00;96996.66;5153345;27;20535;-54
2022/01/31 07:24:30;;;;;;;1.77;1.50;;;;;;;0.15;100.00;96996.56;5153055;27;20082;-54
2022/01/31 07:26:56;;;;;;;1.50;1.40;;;;;;;0.05;100.00;96997.88;5163390;27;20088;-53
2022/01/31 07:29:22;;;;;;;1.83;1.50;;;;;;;0.04;100.00;96995.56;5171480;27;20093;-51
2022/01/31 07:31:50;;;;;;;1.70;1.52;;;;;;;0.15;100.00;96996.56;5173384;27;20054;-54
2022/01/31 07:34:18;;;;;;;1.63;1.30;;;;;;;0.16;100.00;97006.22;5173728;27;20457;-51
2022/01/31 07:36:45;;;;;;;1.40;1.30;;;;;;;0.13;100.00;97005.00;5164521;27;20057;-52
2022/01/31 07:39:12;;;;;;;3.65;1.40;;;;;;;0.20;100.00;97007.88;5152652;27;20050;-52
2022/01/31 07:41:38;;;;;;;3.33;1.65;;;;;;;0.13;100.00;97013.06;5152462;27;20429;-52
2022/01/31 07:44:05;;;;;;;3.03;1.50;;;;;;;0.13;100.00;97013.06;5155825;27;20075;-53
2022/01/31 07:46:31;;;;;;;1.67;1.27;;;;;;;0.12;100.00;97016.13;5165148;27;20088;-51
2022/01/31 07:48:58;;;;;;;1.50;1.35;;;;;;;-0.02;100.00;97022.72;5173227;27;20042;-53
2022/01/31 07:51:24;;;;;;;1.67;1.58;;;;;;;-0.01;100.00;97018.91;5172912;27;20042;-51
2022/01/31 07:53:50;;;;;;;2.13;1.75;;;;;;;0.14;100.00;97016.56;5173053;27;20476;-52
2022/01/31 07:56:18;;;;;;;2.47;1.42;;;;;;;0.14;100.00;97030.03;5169406;27;20080;-52
2022/01/31 07:58:44;;;;;;;3.40;1.60;;;;;;;0.07;100.00;97033.34;5152104;27;20494;-53
2022/01/31 08:01:11;;;;;;;3.35;1.77;;;;;;;0.09;100.00;97036.47;5153465;27;20497;-51
2022/01/31 08:03:38;;;;;;;3.65;1.63;;;;;;;0.13;100.00;97031.94;5157474;27;20056;-53
2022/01/31 08:06:05;;;;;;;1.35;1.25;;;;;;;0.13;100.00;97026.53;5173206;27;20073;-52
2022/01/31 08:08:32;;;;;;;1.90;1.60;;;;;;;0.11;100.00;97023.44;5159142;27;20046;-51
2022/01/31 08:10:59;;;;;;;2.92;1.70;;;;;;;0.13;100.00;97020.38;5151994;27;20091;-51
2022/01/31 08:13:26;;;;;;;1.83;1.20;;;;;;;0.25;100.00;97019.53;5151997;27;20089;-53
2022/01/31 08:16:02;;;;;;;1.75;1.58;;;;;;;0.22;100.00;97019.06;5151796;27;20043;-54
2022/01/31 08:18:29;;;;;;;4.28;1.60;;;;;;;0.24;100.00;97024.13;5163760;27;20050;-51
2022/01/31 08:20:55;;;;;;;2.65;1.88;;;;;;;0.25;100.00;97009.50;5173258;27;20046;-53
2022/01/31 08:23:22;;;;;;;8.90;1.83;;;;;;;0.27;100.00;97015.34;5172454;27;20432;-54
2022/01/31 08:25:50;;;;;;;6.45;2.10;;;;;;;0.33;100.00;97030.09;5172990;27;20091;-53
2022/01/31 08:28:18;;;;;;;2.72;1.88;;;;;;;0.31;100.00;97037.78;5162557;27;20046;-52
2022/01/31 08:30:51;;;;;;;1.60;1.50;;;;;;;0.25;100.00;97041.84;5151985;27;20130;-49
2022/01/31 08:33:32;;;;;;;2.67;1.70;;;;;;;0.15;100.00;97045.06;5151505;27;20083;-53
2022/01/31 08:35:58;;;;;;;2.63;2.10;;;;;;;0.19;100.00;97048.63;5155999;27;20634;-52
2022/01/31 08:38:25;;;;;;;2.33;1.48;;;;;;;0.24;100.00;97048.38;5171012;27;20422;-51
2022/01/31 08:40:52;;;;;;;21.17;3.42;;;;;;;0.24;100.00;97043.00;5173092;27;20402;-54
2022/01/31 08:43:19;;;;;;;1.60;1.50;;;;;;;0.30;100.00;97040.78;5172502;27;20054;-52
2022/01/31 08:45:48;;;;;;;4.50;1.85;;;;;;;0.11;100.00;97023.44;5168782;27;20149;-54
2022/01/31 08:48:14;;;;;;;1.88;1.60;;;;;;;0.09;100.00;97016.81;5152127;27;20055;-55
2022/01/31 08:50:40;;;;;;;3.35;1.75;;;;;;;0.11;100.00;97009.19;5152100;27;20165;-55
2022/01/31 08:53:07;;;;;;;1.90;1.75;;;;;;;0.16;100.00;96995.44;5151570;27;20051;-54
2022/01/31 08:55:35;;;;;;;3.67;1.75;;;;;;;0.18;100.00;97002.03;5152715;27;20558;-55
2022/01/31 08:58:01;;;;;;;4.38;2.38;;;;;;;0.25;100.00;96987.94;5172547;27;20412;-53
2022/01/31 09:00:34;;;;;;;2.13;1.73;;;;;;;0.37;100.00;96995.94;5172291;27;20046;-54
2022/01/31 09:03:02;;;;;;;2.15;1.80;;;;;;;0.41;100.00;96982.53;5172068;27;20046;-55
2022/01/31 09:05:29;;;;;;;1.73;1.50;;;;;;;0.36;100.00;96969.31;5170103;27;20057;-53
2022/01/31 09:07:55;;;;;;;1.50;1.40;;;;;;;0.36;100.00;96970.09;5151129;27;20046;-53
2022/01/31 09:10:21;;;;;;;5.80;2.38;;;;;;;0.40;100.00;96954.81;5151374;27;20046;-52
2022/01/31 09:12:48;;;;;;;2.67;2.05;;;;;;;0.43;100.00;96950.59;5151009;27;20047;-51
2022/01/31 09:15:15;;;;;;;41.05;11.40;;;;;;;0.44;100.00;96954.88;5150975;27;20046;-52
2022/01/31 09:17:41;;;;;;;6.28;3.17;;;;;;;0.52;100.00;96953.13;5170678;27;20080;-53
2022/01/31 09:20:09;;;;;;;10.32;3.97;;;;;;;0.50;100.00;96931.13;5172107;27;20082;-54
2022/01/31 09:22:35;;;;;;;3.05;2.10;;;;;;;0.48;100.00;96920.69;5171825;27;20164;-51
2022/01/31 09:25:02;;;;;;;1.70;1.60;;;;;;;0.45;100.00;96919.47;5171733;27;20042;-51
2022/01/31 09:27:28;;;;;;;3.03;2.17;;;;;;;0.44;100.00;96923.31;5153139;27;20095;-52
2022/01/31 09:29:56;;;;;;;1.48;1.33;;;;;;;0.45;100.00;96927.56;5151091;27;20462;-52
2022/01/31 09:32:24;;;;;;;1.88;1.63;;;;;;;0.39;100.00;96920.88;5150838;27;20047;-51
2022/01/31 09:34:51;;;;;;;1.70;1.60;;;;;;;0.42;100.00;96920.19;5150796;27;20085;-52
2022/01/31 09:37:19;;;;;;;2.80;1.75;;;;;;;0.39;100.00;96920.88;5169803;27;20472;-51
2022/01/31 09:39:47;;;;;;;5.70;2.22;;;;;;;0.47;100.00;96938.00;5175513;27;20596;-54
2022/01/31 09:42:16;;;;;;;1.60;1.50;;;;;;;0.54;100.00;96954.34;5173859;27;20105;-52
2022/01/31 09:44:49;;;;;;;2.63;1.65;;;;;;;0.53;100.00;96950.06;5175349;27;20432;-52
2022/01/31 09:47:22;;;;;;;1.43;1.33;;;;;;;0.65;100.00;96962.66;5175443;27;20532;-53
2022/01/31 09:49:49;;;;;;;2.72;1.60;;;;;;;0.67;100.00;96965.78;5175565;27;20409;-51
2022/01/31 09:52:16;;;;;;;23.02;8.55;;;;;;;0.72;100.00;96986.28;5157188;27;20064;-54
2022/01/31 09:54:43;;;;;;;4.30;1.65;;;;;;;0.74;100.00;96992.13;5154218;27;20060;-53
2022/01/31 09:57:09;;;;;;;11.98;4.85;;;;;;;0.90;100.00;96998.22;5155281;27;20467;-51
2022/01/31 09:59:35;;;;;;;1.95;1.75;;;;;;;0.90;100.00;96982.81;5153979;27;20406;-53
2022/01/31 10:02:09;;;;;;;6.97;3.25;;;;;;;0.93;100.00;96973.22;5154443;27;20057;-52
2022/01/31 10:04:41;;;;;;;2.78;1.42;;;;;;;1.03;100.00;96971.88;5154384;27;20046;-51
2022/01/31 10:07:08;;;;;;;2.13;1.90;;;;;;;1.05;100.00;96962.31;5170414;27;20418;-52
2022/01/31 10:09:35;;;;;;;1.75;1.65;;;;;;;0.98;100.00;96932.50;5175133;27;20042;-50
2022/01/31 10:12:06;;;;;;;2.72;2.03;;;;;;;1.07;100.00;96926.88;5175328;27;20052;-55
2022/01/31 10:17:24;;;;;;;2.17;1.63;;;;;;;1.10;100.00;96864.88;5173223;27;20117;-53
2022/01/31 10:19:55;;;;;;;4.25;2.72;;;;;;;1.01;100.00;96842.75;5175344;27;20042;-51
2022/01/31 10:22:23;;;;;;;2.13;1.60;;;;;;;1.05;100.00;96873.25;5175016;27;20054;-51
2022/01/31 10:24:52;;;;;;;3.08;1.70;;;;;;;1.03;100.00;96856.63;5175343;27;20129;-51
2022/01/31 10:27:22;;;;;;;1.77;1.33;;;;;;;0.98;100.00;96862.34;5174480;27;20060;-54
2022/01/31 10:29:50;;;;;;;1.27;1.17;;;;;;;0.91;100.00;96860.28;5174797;27;20179;-53
2022/01/31 10:32:26;;;;;;;1.40;1.30;;;;;;;1.06;100.00;96865.94;5174734;27;20046;-53
2022/01/31 10:34:55;;;;;;;5.13;1.60;;;;;;;1.00;100.00;96843.09;5174129;27;20050;-54
2022/01/31 10:37:23;;;;;;;1.20;1.10;;;;;;;0.98;100.00;96810.31;5173579;27;20046;-51
2022/01/31 10:45:31;;;;;;;1.58;1.05;;;;;;;0.69;100.00;96793.59;5175125;27;20123;-52
2022/01/31 10:53:57;;;;;;;1.23;1.13;;;;;;;0.97;100.00;96739.38;5174570;27;20053;-50
2022/01/31 10:56:25;;;;;;;4.47;1.20;;;;;;;1.03;100.00;96702.06;5174694;27;20145;-53
2022/01/31 10:58:59;;;;;;;3.47;1.58;;;;;;;1.09;100.00;96692.53;5174901;27;20077;-49
2022/01/31 11:01:28;;;;;;;1.55;1.15;;;;;;;1.02;100.00;96630.38;5174324;27;20046;-54
2022/01/31 11:03:56;;;;;;;1.40;1.30;;;;;;;1.11;100.00;96649.78;5174880;27;20062;-53
2022/01/31 11:06:24;;;;;;;1.98;1.25;;;;;;;0.98;100.00;96614.13;5174004;27;20527;-54
2022/01/31 11:08:51;;;;;;;1.10;1.00;;;;;;;0.92;100.00;96613.66;5174508;27;20527;-51
2022/01/31 11:11:18;;;;;;;1.17;1.08;;;;;;;0.88;100.00;96633.66;5174163;27;20054;-50
2022/01/31 11:13:47;;;;;;;2.03;1.38;;;;;;;0.92;100.00;96672.22;5174088;27;20083;-51
2022/01/31 11:16:14;;;;;;;2.22;1.40;;;;;;;0.92;100.00;96683.03;5174162;27;20042;-53
2022/01/31 11:18:43;;;;;;;1.90;1.20;;;;;;;0.68;100.00;96639.13;5174283;27;20122;-52
2022/01/31 11:21:11;;;;;;;2.88;2.10;;;;;;;0.62;100.00;96669.44;5174036;27;20050;-53
2022/01/31 11:23:43;;;;;;;2.42;1.83;;;;;;;0.70;100.00;96703.50;5174393;27;20042;-51
2022/01/31 11:26:11;;;;;;;4.07;2.80;;;;;;;0.70;100.00;96744.72;5174498;27;20050;-53
2022/01/31 11:28:41;;;;;;;1.35;1.25;;;;;;;0.65;100.00;96774.66;5173422;27;20082;-53
2022/01/31 11:31:07;;;;;;;2.10;1.15;;;;;;;0.56;100.00;96803.75;5173617;27;20102;-52
2022/01/31 11:33:35;;;;;;;1.30;1.20;;;;;;;0.58;100.00;96850.03;5172059;27;20046;-49
2022/01/31 11:36:03;;;;;;;1.65;1.30;;;;;;;0.53;100.00;96876.50;5173722;27;20051;-51
2022/01/31 11:38:29;;;;;;;1.27;1.17;;;;;;;0.57;100.00;96877.38;5173463;27;20053;-54
2022/01/31 11:41:02;;;;;;;3.05;2.08;;;;;;;0.49;100.00;96864.84;5173420;27;20093;-54
2022/01/31 11:43:29;;;;;;;1.38;1.27;;;;;;;0.53;100.00;96854.91;5173374;27;20063;-52
2022/01/31 11:45:59;;;;;;;1.50;1.35;;;;;;;0.42;100.00;96820.44;5173469;27;20557;-53
2022/01/31 11:48:27;;;;;;;2.42;1.20;;;;;;;0.46;100.00;96796.25;5173268;27;20050;-51